Stations météo

Publicité
Besancon, France (7288): Température de l'air & dewpoint: 23.01.2020 17:00:00 - 29.01.2020 17:00:00 (CET)Besancon, France (7288): Température de l'air 5cm: 23.01.2020 17:00:00 - 29.01.2020 17:00:00 (CET)Besancon, France (7288): Température de l'air -20cm & Température de l'air -100cm: 23.01.2020 17:00:00 - 29.01.2020 17:00:00 (CET)Besancon, France (7288): Vitesse du vent & gusts: 23.01.2020 17:00:00 - 29.01.2020 17:00:00 (CET)Besancon, France (7288): Direction du vent: 23.01.2020 17:00:00 - 29.01.2020 17:00:00 (CET)Besancon, France (7288): reduced air pressure: 23.01.2020 17:00:00 - 29.01.2020 17:00:00 (CET)Besancon, France (7288): Ensoleillement: 23.01.2020 17:00:00 - 29.01.2020 17:00:00 (CET)Besancon, France (7288): Quantités de précipitations: 23.01.2020 17:00:00 - 29.01.2020 17:00:00 (CET)
Date & Time tt [°C] td [°C] tt 5cm [°C] tt -20cm [°C] tt -100cm [°C] ff [km/h] ff [knt] fx [km/h] fx [knt] dd ppp [hPa] sd [min] rr [mm]
29.01.2020 17:00:00 7,7 4,8 7,3 5,3 6,8 10 5 25 13 SW 1018,6 24 0,0
29.01.2020 16:00:00 8,4 5,7 7,8 5,3 6,8 14 8 28 15 SSW 1017,9 32 0,0
29.01.2020 15:00:00 7,8 4,9 7,0 5,2 6,8 12 6 38 20 WSW 1017,0 0 0,0
29.01.2020 14:00:00 7,5 5,8 7,6 5,1 6,7 14 8 29 15 SW 1016,8 4 0,0
29.01.2020 13:00:00 6,8 5,1 5,9 5,2 6,8 14 7 38 20 SW 1017,0 0 0,0
29.01.2020 12:00:00 6,0 5,1 5,5 5,2 6,8 11 6 28 15 SSW 1017,1 0 0,4
29.01.2020 11:00:00 5,6 5,2 5,1 5,2 6,8 10 5 29 15 SW 1016,9 0 0,2
29.01.2020 10:00:00 5,5 4,6 4,5 5,2 6,8 16 8 32 17 SW 1016,4 0 0,0
29.01.2020 09:00:00 5,0 4,3 3,6 5,2 6,8 16 8 29 15 SW 1016,0 0 0,2
29.01.2020 08:00:00 3,8 3,4 2,6 5,2 6,8 8 4 19 10 SSW 1015,6 0 0,0
29.01.2020 07:00:00 3,5 3,1 2,6 5,2 6,8 4 2 15 8 SSW 1015,2 0 0,0
29.01.2020 06:00:00 3,6 2,9 3,0 5,3 6,8 8 4 33 18 W 1015,0 0 1,8
29.01.2020 05:00:00 4,7 2,9 3,7 5,3 6,8 9 5 27 14 SW 1014,2 0 0,0
29.01.2020 04:00:00 4,2 3,9 3,0 5,3 6,8 8 5 23 12 SSW 1013,6 0 0,0
29.01.2020 03:00:00 3,9 3,2 3,1 5,4 6,8 8 4 34 18 SSW 1013,5 0 1,6
29.01.2020 02:00:00 4,0 3,4 2,8 5,4 6,8 15 8 41 22 W 1012,4 0 6,1
29.01.2020 01:00:00 5,1 3,9 4,2 5,4 6,8 20 11 42 23 SW 1011,6 0 0,0
29.01.2020 00:00:00 5,2 3,7 3,8 5,4 6,8 20 11 45 24 SSW 1010,9 0 0,0
28.01.2020 23:00:00 4,5 3,3 3,6 5,4 6,8 18 10 44 24 SW 1010,8 0 0,8
28.01.2020 22:00:00 4,5 3,2 3,6 5,4 6,8 12 6 53 29 SW 1010,9 0 1,4
28.01.2020 21:00:00 6,2 1,9 4,1 5,4 6,8 22 12 39 21 SW 1010,8 0 0,0
28.01.2020 20:00:00 5,6 2,1 3,5 5,4 6,8 16 9 33 18 SW 1011,4 0 0,0
28.01.2020 19:00:00 5,4 2,0 3,4 5,4 6,8 15 8 29 16 SW 1011,6 0 0,2
28.01.2020 18:00:00 5,7 1,2 3,7 5,4 6,8 13 7 34 18 SW 1011,3 0 0,0
28.01.2020 17:00:00 6,5 1,4 6,0 5,3 6,7 19 10 52 28 SW 1010,2 29 0,0
28.01.2020 16:00:00 7,7 1,5 7,6 5,2 6,7 25 14 58 32 SW 1009,3 53 0,0
28.01.2020 15:00:00 7,8 2,5 8,1 5,2 6,8 24 13 54 29 SW 1008,6 32 0,0
28.01.2020 14:00:00 7,1 2,2 7,9 5,2 6,8 22 12 53 29 SW 1008,8 2 0,0
28.01.2020 13:00:00 7,0 2,3 6,6 5,2 6,8 23 12 52 28 SW 1009,1 14 0,0
28.01.2020 12:00:00 6,4 1,5 6,3 5,2 6,8 22 12 59 32 SW 1009,2 0 0,0
28.01.2020 11:00:00 6,3 3,3 5,0 5,1 6,7 23 12 56 31 SW 1008,0 0 0,0
28.01.2020 10:00:00 5,8 3,1 4,8 5,2 6,8 22 12 48 26 SW 1007,3 0 0,0
28.01.2020 09:00:00 6,5 4,2 4,6 5,2 6,8 21 11 76 41 SW 1006,0 0 2,0
28.01.2020 08:00:00 7,9 5,2 5,9 5,1 6,8 31 17 68 37 SW 1003,7 0 0,2
28.01.2020 07:00:00 6,9 4,7 5,4 5,1 6,8 18 10 47 26 SW 1004,8 0 0,0
28.01.2020 06:00:00 8,0 4,6 6,5 5,1 6,8 24 13 57 31 SW 1004,6 0 0,0
28.01.2020 05:00:00 7,9 5,7 6,5 5,1 6,8 16 9 46 25 SW 1004,6 0 0,2
28.01.2020 04:00:00 7,8 5,8 6,2 5,0 6,7 18 10 38 21 SW 1005,6 0 0,0
28.01.2020 03:00:00 7,4 6,2 6,2 5,0 6,7 15 8 41 22 SW 1006,9 0 0,0
28.01.2020 02:00:00 7,3 6,6 6,6 5,0 6,8 13 7 39 21 SW 1007,0 0 1,6
28.01.2020 01:00:00 7,5 6,4 6,6 5,0 6,8 15 8 39 21 SW 1007,7 0 0,8
28.01.2020 00:00:00 7,7 6,2 6,6 5,0 6,8 19 11 51 28 SW 1007,7 0 1,8
27.01.2020 23:00:00 8,4 5,1 6,3 4,9 6,8 12 7 34 18 SSW 1007,4 0 0,0
27.01.2020 22:00:00 8,0 5,3 6,1 4,9 6,8 15 8 45 25 SSW 1008,5 0 0,0
27.01.2020 21:00:00 7,2 5,7 5,8 4,9 6,8 9 5 36 19 SSW 1009,7 0 0,4
27.01.2020 20:00:00 6,6 5,4 5,5 4,8 6,7 10 5 43 23 SSW 1010,5 0 0,8
27.01.2020 19:00:00 6,8 4,8 5,6 4,8 6,8 22 12 38 20 SSW 1011,2 0 1,0
27.01.2020 18:00:00 6,8 5,4 5,8 4,7 6,8 15 8 38 21 SSW 1011,8 0 1,2
27.01.2020 17:00:00 7,3 5,1 6,0 4,6 6,8 16 9 40 21 SW 1012,5 0 0,8
27.01.2020 16:00:00 8,6 4,6 7,1 4,6 6,8 16 9 30 16 SW 1012,5 0 0,0
27.01.2020 15:00:00 9,5 3,9 9,4 4,5 6,8 14 7 32 18 SW 1012,8 0 0,0
27.01.2020 14:00:00 9,8 4,6 10,2 4,4 6,7 8 5 22 12 WSW 1013,0 0 0,0
27.01.2020 13:00:00 9,0 4,4 10,1 4,4 6,8 8 5 22 12 SW 1014,0 0 0,0
27.01.2020 12:00:00 9,0 4,0 11,1 4,3 6,7 11 6 23 13 SW 1015,4 30 0,0
27.01.2020 11:00:00 8,6 3,8 9,2 4,3 6,8 8 4 19 10 WSW 1016,2 34 0,0
27.01.2020 10:00:00 7,7 3,2 4,4 4,3 6,8 6 4 17 9 SW 1016,7 41 0,0
27.01.2020 09:00:00 5,9 3,1 2,1 4,3 6,8 0 0 10 6 N 1017,0 25 0,0
27.01.2020 08:00:00 5,8 3,3 1,9 4,3 6,8 0 0 6 4 N 1017,5 0 0,0
27.01.2020 07:00:00 5,7 3,7 2,5 4,3 6,8 0 0 6 4 N 1018,0 0 0,0
27.01.2020 06:00:00 6,0 4,2 3,9 4,3 6,8 2 1 12 6 S 1018,4 0 0,0
27.01.2020 05:00:00 5,9 4,4 1,7 4,3 6,8 5 3 15 8 SSW 1019,1 0 0,0
27.01.2020 04:00:00 6,9 4,7 4,3 4,3 6,8 7 4 14 7 SW 1019,2 0 0,0
27.01.2020 03:00:00 7,0 4,8 5,3 4,3 6,8 6 4 15 8 SSW 1019,8 0 0,0
27.01.2020 02:00:00 6,6 5,1 4,7 4,3 6,8 5 3 17 9 SSW 1019,9 0 0,0
27.01.2020 01:00:00 6,5 5,4 4,4 4,2 6,8 4 2 19 10 SSW 1020,1 0 0,0
27.01.2020 00:00:00 6,6 5,7 4,8 4,2 6,8 4 2 18 10 SSW 1020,4 0 0,0
26.01.2020 23:00:00 7,2 6,3 6,4 4,1 6,8 9 5 18 10 SSW 1020,0 0 0,0
26.01.2020 22:00:00 7,7 5,8 6,5 4,1 6,8 9 5 23 12 SSW 1020,2 0 0,0
26.01.2020 21:00:00 7,6 5,6 5,7 4,0 6,8 6 3 12 6 SW 1020,0 0 0,0
26.01.2020 20:00:00 7,4 5,7 4,5 4,0 6,8 3 2 12 6 SSW 1019,7 0 0,0
26.01.2020 19:00:00 7,5 6,0 5,7 3,9 6,8 4 2 12 7 SSW 1019,4 0 0,0
26.01.2020 18:00:00 7,8 6,3 6,5 3,8 6,8 5 3 18 10 SSW 1019,4 0 0,0
26.01.2020 17:00:00 8,3 6,1 6,8 3,8 6,8 2 1 8 4 SW 1019,3 0 0,0
26.01.2020 16:00:00 8,8 6,6 8,0 3,6 6,8 3 1 8 5 S 1019,1 0 0,2
26.01.2020 15:00:00 9,2 6,1 8,7 3,6 6,8 3 2 11 6 SW 1019,0 0 0,2
26.01.2020 14:00:00 9,1 5,6 9,8 3,5 6,8 7 4 19 11 SW 1019,3 0 0,0
26.01.2020 13:00:00 8,5 5,1 10,4 3,5 6,8 4 2 12 6 SSW 1019,9 0 0,0
26.01.2020 12:00:00 7,5 4,4 8,2 3,5 6,8 0 0 3 2 N 1020,3 0 0,0
26.01.2020 11:00:00 5,7 3,7 6,7 3,5 6,8 0 0 3 2 N 1020,6 22 0,0
26.01.2020 10:00:00 3,4 3,4 1,2 3,5 6,8 0 0 4 2 N 1020,9 5 0,0
26.01.2020 09:00:00 1,7 1,6 -2,6 3,5 6,8 0 0 5 3 N 1020,9 25 0,0
26.01.2020 08:00:00 1,5 1,1 -2,5 3,5 6,9 0 0 0 0 N 1020,6 0 0,0
26.01.2020 07:00:00 2,6 2,5 -1,3 3,5 6,9 0 0 0 0 N 1020,3 0 0,0
26.01.2020 06:00:00 2,6 2,0 -0,3 3,5 6,9 0 0 0 0 N 1020,2 0 0,0
26.01.2020 05:00:00 2,9 2,3 -1,6 3,6 6,9 0 0 5 3 N 1020,0 0 0,0
26.01.2020 04:00:00 2,6 2,0 -1,7 3,5 6,9 0 0 5 3 N 1020,1 0 0,0
26.01.2020 03:00:00 3,8 3,1 -0,2 3,5 6,9 0 0 4 2 N 1020,3 0 0,0
26.01.2020 02:00:00 4,4 3,2 0,7 3,5 6,9 0 0 5 3 N 1020,2 0 0,0
26.01.2020 01:00:00 4,8 3,5 2,0 3,5 6,9 0 0 0 0 N 1020,5 0 0,0
26.01.2020 00:00:00 4,6 3,3 1,0 3,5 6,9 0 0 0 0 N 1020,6 0 -
25.01.2020 23:00:00 5,1 3,3 2,9 3,4 6,9 0 0 0 0 N 1020,6 0 0,0
25.01.2020 22:00:00 5,2 3,4 2,0 3,4 6,9 0 0 0 0 N 1020,7 0 0,0
25.01.2020 21:00:00 4,4 2,7 1,1 3,4 6,9 0 0 0 0 N 1021,2 0 0,0
25.01.2020 20:00:00 4,6 2,9 -0,5 3,3 6,9 0 0 4 2 N 1021,1 0 0,0
25.01.2020 19:00:00 5,8 3,5 0,9 3,3 6,9 0 0 4 2 N 1021,1 0 0,0
25.01.2020 18:00:00 6,1 3,6 1,8 3,2 6,9 0 0 0 0 N 1020,9 0 0,0
25.01.2020 17:00:00 8,1 4,1 4,4 3,1 7,0 0 0 9 5 N 1020,9 28 0,0
25.01.2020 16:00:00 9,9 4,3 12,4 3,0 7,0 5 3 8 4 WSW 1020,8 60 0,0
25.01.2020 15:00:00 9,9 4,3 13,6 2,9 6,9 0 0 9 5 N 1020,8 58 0,0
25.01.2020 14:00:00 9,0 4,0 12,0 2,8 6,9 4 2 8 4 WSW 1021,7 38 0,0
25.01.2020 13:00:00 7,2 3,6 9,2 2,8 7,0 2 1 5 3 SSW 1022,5 0 0,0
25.01.2020 12:00:00 5,6 3,3 7,2 2,8 7,0 0 0 0 0 N 1023,4 0 0,0
25.01.2020 11:00:00 3,5 2,3 5,2 2,8 7,0 0 0 0 0 N 1024,1 0 0,0
25.01.2020 10:00:00 2,2 1,8 0,2 2,8 7,0 0 0 4 2 N 1024,0 7 0,0
25.01.2020 09:00:00 0,1 0,0 -3,6 2,8 7,0 4 2 5 3 NNE 1024,0 0 0,0
25.01.2020 08:00:00 -0,6 -1,0 -3,6 2,8 7,0 0 0 5 3 N 1023,9 0 0,0
25.01.2020 07:00:00 0,7 0,7 -3,2 2,8 7,0 0 0 4 2 N 1023,1 0 0,0
25.01.2020 06:00:00 0,8 0,5 -2,3 2,8 7,1 0 0 4 2 N 1022,6 0 0,0
25.01.2020 05:00:00 1,5 0,9 -1,9 2,8 7,1 0 0 0 0 N 1022,7 0 0,0
25.01.2020 04:00:00 2,1 1,2 -0,9 2,8 7,0 0 0 3 2 N 1022,8 0 0,0
25.01.2020 03:00:00 2,3 1,3 -0,1 2,7 7,1 2 1 5 3 N 1023,1 0 0,0
25.01.2020 02:00:00 3,0 1,5 0,9 2,7 7,1 0 0 5 3 N 1023,2 0 0,0
25.01.2020 01:00:00 2,9 1,4 1,2 2,7 7,1 2 1 5 3 NNE 1023,8 0 0,0
25.01.2020 00:00:00 2,9 1,4 0,0 2,7 7,1 0 0 4 2 N 1024,2 0 0,0
24.01.2020 23:00:00 2,5 1,2 0,0 2,7 7,1 0 0 5 3 N 1024,4 0 0,0
24.01.2020 22:00:00 3,1 1,3 0,1 2,6 7,1 0 0 0 0 N 1024,3 0 0,0
24.01.2020 21:00:00 3,6 1,5 1,6 2,6 7,1 0 0 3 1 N 1024,2 0 0,0
24.01.2020 20:00:00 3,2 1,1 1,0 2,6 7,1 0 0 3 2 N 1024,0 0 0,0
24.01.2020 19:00:00 3,4 1,1 0,5 2,5 7,1 0 0 3 2 N 1023,9 0 0,0
24.01.2020 18:00:00 3,8 1,3 0,5 2,5 7,1 0 0 6 3 N 1023,9 0 0,0
24.01.2020 17:00:00 4,9 1,4 2,3 2,5 7,1 2 1 9 5 NW 1023,5 0 0,0
24.01.2020 16:00:00 7,2 2,1 6,9 2,5 7,2 6 3 9 5 W 1023,2 36 0,0
24.01.2020 15:00:00 8,0 2,0 11,2 2,5 7,2 0 0 8 4 N 1023,2 32 0,0
24.01.2020 14:00:00 7,6 2,1 13,1 2,5 7,1 3 2 11 6 WSW 1023,9 55 0,0
24.01.2020 13:00:00 7,7 2,0 16,2 2,5 7,1 0 0 4 2 N 1024,6 60 0,0
24.01.2020 12:00:00 5,3 1,0 6,0 2,5 7,2 0 0 5 3 N 1025,4 60 0,0
24.01.2020 11:00:00 2,3 -0,3 0,3 2,6 7,2 0 0 5 3 N 1025,9 60 0,0
24.01.2020 10:00:00 -1,0 -2,0 -4,2 2,6 7,2 3 1 6 3 N 1026,2 10 0,0
24.01.2020 09:00:00 -2,9 -3,4 -6,1 2,6 7,2 0 0 4 2 N 1026,8 0 0,0
24.01.2020 08:00:00 -3,3 -3,7 -6,6 2,6 7,2 0 0 0 0 N 1026,6 0 0,0
24.01.2020 07:00:00 -3,2 -3,6 -6,5 2,6 7,2 0 0 2 1 N 1026,6 0 0,0
24.01.2020 06:00:00 -2,8 -3,2 -6,3 2,6 7,2 0 0 0 0 N 1026,5 0 0,0
24.01.2020 05:00:00 -2,8 -3,2 -6,4 2,7 7,3 0 0 0 0 N 1026,3 0 0,0
24.01.2020 04:00:00 -2,8 -3,3 -6,3 2,7 7,3 0 0 4 2 N 1026,3 0 0,0
24.01.2020 03:00:00 -3,0 -3,4 -6,4 2,7 7,3 0 0 6 3 N 1026,9 0 0,0
24.01.2020 02:00:00 -2,9 -3,4 -6,5 2,7 7,3 2 1 5 3 NNE 1027,1 0 0,0
24.01.2020 01:00:00 -2,9 -3,4 -6,6 2,8 7,3 0 0 5 3 N 1027,9 0 0,0
24.01.2020 00:00:00 -2,9 -3,6 -6,7 2,8 7,3 0 0 4 2 N 1028,4 0 0,0
23.01.2020 23:00:00 -2,3 -3,1 -6,4 2,8 7,4 0 0 5 3 N 1028,3 0 0,0
23.01.2020 22:00:00 -2,1 -3,1 -6,2 2,7 7,3 0 0 4 2 N 1027,8 0 0,0
23.01.2020 21:00:00 -1,6 -2,7 -5,8 2,7 7,3 0 0 4 2 N 1027,8 0 0,0
23.01.2020 20:00:00 -1,3 -2,7 -5,6 2,7 7,4 2 1 5 3 NNE 1027,6 0 0,0
23.01.2020 19:00:00 -0,3 -2,4 -4,4 2,7 7,3 0 0 7 4 N 1027,3 0 0,0
23.01.2020 18:00:00 0,8 -2,1 -3,9 2,7 7,4 2 1 5 3 NNE 1026,9 0 0,0
23.01.2020 17:00:00 2,8 -1,8 -0,8 2,7 7,4 0 0 6 3 N 1026,4 5 0,0

tt = Température de l'air
td = dewpoint
tt 5cm = Température de l'air 5cm
tt -20cm = Température de l'air -20cm
tt -100cm = Température de l'air -100cm
ff = Vitesse du vent
fx = gusts
dd = Direction du vent
ppp = reduced air pressure
sd = Ensoleillement
rr = Quantités de précipitations

stations d'obs. à proximité